Time;durP1;ratioP1;P1;durP2;ratioP2;P2;SDS_P1;SDS_P2;PMS_P1;PMS_P2;Temp;Humidity;BMP_temperature;BMP_pressure;BME280_temperature;BME280_humidity;BME280_pressure;Samples;Min_cycle;Max_cycle;Signal;HPM_P1;HPM_P2
2023/12/02 00:02:01;;;;;;;18.77;12.88;;;;;;;0.57;100.00;100958.00;5268561;28;20127;-78
2023/12/02 00:04:33;;;;;;;19.42;12.93;;;;;;;0.61;100.00;100975.88;5251019;28;20037;-78
2023/12/02 00:07:05;;;;;;;18.27;12.82;;;;;;;0.60;100.00;100961.28;5247060;28;20041;-78
2023/12/02 00:09:36;;;;;;;18.45;12.85;;;;;;;0.70;100.00;100978.06;5263675;28;20032;-77
2023/12/02 00:12:08;;;;;;;19.08;12.60;;;;;;;0.62;100.00;100966.41;5264435;28;20124;-78
2023/12/02 00:14:40;;;;;;;18.00;12.93;;;;;;;0.64;100.00;100973.16;5258710;28;20037;-77
2023/12/02 00:17:12;;;;;;;18.02;12.77;;;;;;;0.52;100.00;100947.88;5260974;28;20369;-78
2023/12/02 00:19:44;;;;;;;18.63;13.25;;;;;;;0.57;100.00;100955.41;5259850;28;20029;-78
2023/12/02 00:22:16;;;;;;;19.60;13.43;;;;;;;0.60;100.00;100956.13;5260445;28;20024;-78
2023/12/02 00:24:48;;;;;;;17.67;12.30;;;;;;;0.51;100.00;100946.22;5259984;28;20044;-78
2023/12/02 00:27:20;;;;;;;18.08;12.50;;;;;;;0.56;100.00;100974.38;5255193;28;20035;-78
2023/12/02 00:29:52;;;;;;;18.80;13.52;;;;;;;0.57;100.00;100976.91;5257772;28;20047;-78
2023/12/02 00:32:23;;;;;;;18.63;12.40;;;;;;;0.60;100.00;100973.34;5266366;28;20037;-78
2023/12/02 00:34:56;;;;;;;18.73;12.68;;;;;;;0.52;100.00;100971.09;5266048;28;20029;-78
2023/12/02 00:37:28;;;;;;;18.15;12.68;;;;;;;0.51;100.00;100966.84;5266180;28;20036;-78
2023/12/02 00:40:00;;;;;;;18.73;12.98;;;;;;;0.47;100.00;100973.03;5263031;28;20062;-78
2023/12/02 00:42:32;;;;;;;17.95;12.82;;;;;;;0.46;100.00;100976.50;5257196;28;20032;-79
2023/12/02 00:45:05;;;;;;;19.45;12.13;;;;;;;0.40;100.00;100969.84;5259274;28;20036;-78
2023/12/02 00:47:36;;;;;;;17.63;11.87;;;;;;;0.38;100.00;100983.69;5258833;28;20398;-78
2023/12/02 00:50:08;;;;;;;17.77;12.27;;;;;;;0.28;100.00;100964.38;5240830;28;20048;-78
2023/12/02 00:52:40;;;;;;;17.02;12.35;;;;;;;0.31;100.00;100971.97;5256579;28;20028;-79
2023/12/02 00:55:12;;;;;;;18.98;11.88;;;;;;;0.36;100.00;100968.28;5257407;28;20242;-79
2023/12/02 00:57:44;;;;;;;18.67;12.18;;;;;;;0.36;100.00;100978.59;5255548;28;20043;-80
2023/12/02 01:00:17;;;;;;;16.50;12.10;;;;;;;0.44;100.00;100981.72;5257678;28;20025;-79
2023/12/02 01:02:49;;;;;;;17.60;12.77;;;;;;;0.42;100.00;100982.69;5257197;28;20485;-78
2023/12/02 01:05:21;;;;;;;21.83;13.27;;;;;;;0.43;100.00;100974.88;5256489;28;20035;-80
2023/12/02 01:07:53;;;;;;;17.23;12.43;;;;;;;0.43;100.00;100974.88;5239562;28;20049;-78
2023/12/02 01:10:25;;;;;;;19.65;13.45;;;;;;;0.32;100.00;100968.50;5256151;28;20041;-78
2023/12/02 01:12:57;;;;;;;18.15;12.75;;;;;;;0.32;100.00;100963.34;5238817;28;20051;-79
2023/12/02 01:15:28;;;;;;;18.98;12.63;;;;;;;0.29;100.00;100953.16;5256677;28;20056;-78
2023/12/02 01:18:00;;;;;;;16.70;11.80;;;;;;;0.43;100.00;100974.88;5256857;28;20043;-79
2023/12/02 01:20:32;;;;;;;17.70;12.18;;;;;;;0.34;100.00;100969.25;5257930;28;20498;-79
2023/12/02 01:23:04;;;;;;;17.02;12.10;;;;;;;0.35;100.00;100958.06;5257929;28;20024;-80
2023/12/02 01:25:36;;;;;;;15.95;11.73;;;;;;;0.42;100.00;100962.06;5255544;28;20074;-79
2023/12/02 01:28:08;;;;;;;16.80;11.77;;;;;;;0.36;100.00;100947.69;5255751;28;20036;-78
2023/12/02 01:30:40;;;;;;;17.25;11.88;;;;;;;0.46;100.00;100951.56;5258078;28;20374;-80
2023/12/02 01:33:12;;;;;;;17.45;12.30;;;;;;;0.42;100.00;100959.50;5256194;28;20020;-79
2023/12/02 01:35:44;;;;;;;17.90;13.65;;;;;;;0.37;100.00;100961.41;5256322;28;20052;-81
2023/12/02 01:38:15;;;;;;;17.60;12.43;;;;;;;0.38;100.00;100957.91;5256976;28;20047;-79
2023/12/02 01:40:47;;;;;;;18.90;13.15;;;;;;;0.47;100.00;100963.56;5242060;28;20486;-81
2023/12/02 01:43:25;;;;;;;18.52;12.75;;;;;;;0.63;100.00;100976.63;5257863;28;20051;-80
2023/12/02 01:45:56;;;;;;;17.85;12.68;;;;;;;0.42;100.00;100962.06;5255779;28;20028;-79
2023/12/02 01:48:31;;;;;;;19.25;13.02;;;;;;;0.50;100.00;100993.53;5257137;28;20039;-79
2023/12/02 01:51:04;;;;;;;18.75;12.93;;;;;;;0.51;100.00;100995.19;5259207;28;20040;-78
2023/12/02 01:53:37;;;;;;;18.23;12.65;;;;;;;0.42;100.00;100986.09;5259238;28;20030;-80
2023/12/02 01:56:10;;;;;;;18.65;12.73;;;;;;;0.57;100.00;100999.25;5258715;28;20041;-79
2023/12/02 01:58:42;;;;;;;20.08;13.40;;;;;;;0.58;100.00;100998.38;5259291;28;20036;-78
2023/12/02 02:01:14;;;;;;;19.50;13.63;;;;;;;0.63;100.00;100993.84;5259555;28;20470;-79
2023/12/02 02:03:50;;;;;;;17.75;12.60;;;;;;;0.65;100.00;100992.91;5259356;28;20036;-80
2023/12/02 02:06:22;;;;;;;19.60;13.07;;;;;;;0.51;100.00;100991.78;5257125;28;20032;-79
2023/12/02 02:08:54;;;;;;;18.90;13.02;;;;;;;0.53;100.00;100998.56;5259690;28;20371;-80
2023/12/02 02:11:26;;;;;;;19.45;12.88;;;;;;;0.51;100.00;100997.78;5257048;28;20043;-78
2023/12/02 02:13:58;;;;;;;19.88;13.27;;;;;;;0.42;100.00;100988.69;5258026;28;20037;-79
2023/12/02 02:16:30;;;;;;;19.08;12.98;;;;;;;0.44;100.00;100989.44;5257563;28;20509;-79
2023/12/02 02:19:02;;;;;;;19.83;13.05;;;;;;;0.46;100.00;100995.38;5255953;28;20478;-80
2023/12/02 02:21:34;;;;;;;18.55;12.75;;;;;;;0.53;100.00;100993.41;5257388;28;20357;-78
2023/12/02 02:24:05;;;;;;;20.40;13.60;;;;;;;0.52;100.00;100991.72;5261357;28;20029;-78
2023/12/02 02:26:37;;;;;;;17.73;13.10;;;;;;;0.55;100.00;100993.34;5257216;28;20086;-79
2023/12/02 02:29:09;;;;;;;20.27;14.30;;;;;;;0.50;100.00;100988.38;5259681;28;20044;-79
2023/12/02 02:31:41;;;;;;;20.50;14.68;;;;;;;0.46;100.00;100990.22;5257333;28;20028;-78
2023/12/02 02:34:13;;;;;;;19.92;13.65;;;;;;;0.41;100.00;100986.97;5258491;28;20037;-80
2023/12/02 02:36:45;;;;;;;17.10;12.32;;;;;;;0.40;100.00;100994.78;5257476;28;20438;-79
2023/12/02 02:39:17;;;;;;;17.30;12.98;;;;;;;0.42;100.00;100978.38;5260081;28;20071;-79
2023/12/02 02:41:49;;;;;;;18.95;13.60;;;;;;;0.44;100.00;100996.34;5258072;28;20033;-79
2023/12/02 02:44:21;;;;;;;19.30;13.23;;;;;;;0.46;100.00;101008.28;5257585;28;20035;-79
2023/12/02 02:46:52;;;;;;;19.80;13.77;;;;;;;0.36;100.00;100985.50;5240619;28;20040;-79
2023/12/02 02:49:24;;;;;;;18.20;13.40;;;;;;;0.44;100.00;100989.44;5253581;28;20025;-78
2023/12/02 02:51:57;;;;;;;19.58;13.05;;;;;;;0.48;100.00;101011.63;5258552;28;20049;-78
2023/12/02 02:54:28;;;;;;;19.05;13.25;;;;;;;0.50;100.00;101009.00;5262251;28;20044;-78
2023/12/02 02:57:01;;;;;;;18.88;13.68;;;;;;;0.52;100.00;101017.50;5242998;28;20044;-78
2023/12/02 02:59:32;;;;;;;18.67;13.13;;;;;;;0.51;100.00;101015.81;5258837;28;20036;-78
2023/12/02 03:02:04;;;;;;;20.92;14.00;;;;;;;0.50;100.00;101018.47;5261750;28;20037;-78
2023/12/02 03:04:36;;;;;;;19.00;13.80;;;;;;;0.52;100.00;101017.50;5260648;28;20115;-78
2023/12/02 03:07:08;;;;;;;19.30;13.80;;;;;;;0.39;100.00;101003.44;5257997;28;20248;-79
2023/12/02 03:09:40;;;;;;;19.63;12.80;;;;;;;0.50;100.00;101018.47;5260007;28;20500;-78
2023/12/02 03:12:12;;;;;;;19.33;13.60;;;;;;;0.54;100.00;101015.69;5263372;28;20549;-79
2023/12/02 03:14:44;;;;;;;19.13;13.40;;;;;;;0.55;100.00;101019.94;5265562;28;20040;-78
2023/12/02 03:17:16;;;;;;;20.92;13.50;;;;;;;0.53;100.00;101026.91;5246828;28;20045;-79
2023/12/02 03:19:48;;;;;;;18.35;13.32;;;;;;;0.50;100.00;101009.00;5266351;28;20040;-78
2023/12/02 03:22:20;;;;;;;17.08;12.18;;;;;;;0.55;100.00;101021.69;5245459;28;20550;-79
2023/12/02 03:24:52;;;;;;;18.48;12.95;;;;;;;0.47;100.00;101014.25;5265068;28;20031;-79
2023/12/02 03:27:24;;;;;;;17.83;12.68;;;;;;;0.54;100.00;101018.28;5264316;28;20049;-80
2023/12/02 03:29:56;;;;;;;19.65;12.70;;;;;;;0.56;100.00;101025.94;5265767;28;20033;-80
2023/12/02 03:32:28;;;;;;;19.30;13.15;;;;;;;0.55;100.00;101019.13;5260189;28;20108;-81
2023/12/02 03:35:00;;;;;;;17.75;12.93;;;;;;;0.54;100.00;101017.44;5263521;28;20043;-81
2023/12/02 03:37:31;;;;;;;18.27;13.27;;;;;;;0.55;100.00;101017.38;5244658;28;20040;-82
2023/12/02 03:40:05;;;;;;;18.67;13.48;;;;;;;0.54;100.00;101015.69;5264531;28;20327;-82
2023/12/02 03:42:37;;;;;;;17.70;12.07;;;;;;;0.48;100.00;101008.19;5264721;28;20371;-81
2023/12/02 03:45:09;;;;;;;21.08;13.07;;;;;;;0.50;100.00;101000.44;5266724;28;20031;-81
2023/12/02 03:47:41;;;;;;;20.17;13.77;;;;;;;0.55;100.00;101017.38;5248469;28;20049;-81
2023/12/02 03:50:13;;;;;;;17.98;12.50;;;;;;;0.54;100.00;101022.59;5263194;28;20218;-82
2023/12/02 03:52:45;;;;;;;19.77;13.75;;;;;;;0.50;100.00;101018.47;5266356;28;20069;-81
2023/12/02 03:55:18;;;;;;;19.23;13.43;;;;;;;0.54;100.00;101020.84;5264004;28;20033;-81
2023/12/02 03:57:50;;;;;;;19.58;13.52;;;;;;;0.56;100.00;101018.19;5242676;28;20040;-82
2023/12/02 04:00:22;;;;;;;19.17;13.10;;;;;;;0.57;100.00;101018.16;5264210;28;20130;-80
2023/12/02 04:02:54;;;;;;;19.65;13.45;;;;;;;0.53;100.00;101032.06;5261759;28;20048;-82
2023/12/02 04:05:25;;;;;;;17.75;13.27;;;;;;;0.54;100.00;101053.53;5245830;28;20465;-81
2023/12/02 04:07:57;;;;;;;18.33;13.38;;;;;;;0.52;100.00;101032.94;5262479;28;20036;-82
2023/12/02 04:10:29;;;;;;;17.20;12.93;;;;;;;0.46;100.00;101035.78;5265723;28;20062;-81
2023/12/02 04:13:01;;;;;;;20.13;14.52;;;;;;;0.52;100.00;101058.72;5265411;28;20033;-81
2023/12/02 04:15:33;;;;;;;20.80;14.20;;;;;;;0.47;100.00;101028.00;5263255;28;20041;-80
2023/12/02 04:18:05;;;;;;;18.92;14.00;;;;;;;0.54;100.00;101064.69;5261646;28;20036;-80
2023/12/02 04:20:37;;;;;;;19.38;13.57;;;;;;;0.46;100.00;101039.19;5263730;28;20028;-80
2023/12/02 04:23:09;;;;;;;19.33;14.65;;;;;;;0.43;100.00;101059.94;5262924;28;20036;-81
2023/12/02 04:25:41;;;;;;;18.23;13.07;;;;;;;0.58;100.00;101063.66;5262853;28;20397;-81
2023/12/02 04:28:12;;;;;;;21.15;14.05;;;;;;;0.50;100.00;101057.97;5261783;28;20033;-78
2023/12/02 04:30:44;;;;;;;21.75;14.45;;;;;;;0.57;100.00;101061.13;5263309;28;20041;-78
2023/12/02 04:33:19;;;;;;;19.67;14.23;;;;;;;0.64;100.00;101070.28;5257256;28;20104;-78
2023/12/02 04:35:51;;;;;;;18.13;13.40;;;;;;;0.69;100.00;101070.97;5258298;28;20469;-79
2023/12/02 04:38:23;;;;;;;19.60;13.23;;;;;;;0.72;100.00;101063.94;5262317;28;20409;-78
2023/12/02 04:40:55;;;;;;;19.48;14.20;;;;;;;0.64;100.00;101065.97;5259716;28;20039;-78
2023/12/02 04:43:27;;;;;;;20.58;14.18;;;;;;;0.65;100.00;101057.34;5242023;28;20048;-78
2023/12/02 04:45:59;;;;;;;18.67;13.75;;;;;;;0.63;100.00;101060.88;5259127;28;20037;-78
2023/12/02 04:48:31;;;;;;;19.98;13.82;;;;;;;0.63;100.00;101064.31;5261269;28;20500;-78
2023/12/02 04:51:03;;;;;;;20.58;14.65;;;;;;;0.54;100.00;101056.09;5259822;28;20039;-78
2023/12/02 04:53:35;;;;;;;19.48;13.63;;;;;;;0.56;100.00;101062.03;5243627;28;20413;-78
2023/12/02 04:56:07;;;;;;;19.88;14.13;;;;;;;0.52;100.00;101056.16;5263267;28;20037;-78
2023/12/02 04:58:39;;;;;;;20.33;14.32;;;;;;;0.56;100.00;101072.34;5260321;28;20489;-79
2023/12/02 05:01:11;;;;;;;20.42;14.40;;;;;;;0.60;100.00;101077.31;5262324;28;20051;-78
2023/12/02 05:03:43;;;;;;;21.10;14.88;;;;;;;0.58;100.00;101073.13;5260217;28;20040;-78
2023/12/02 05:06:15;;;;;;;20.90;14.70;;;;;;;0.55;100.00;101083.56;5239753;28;20041;-79
2023/12/02 05:08:47;;;;;;;21.38;15.68;;;;;;;0.59;100.00;101069.66;5260481;28;20032;-78
2023/12/02 05:11:20;;;;;;;20.90;14.77;;;;;;;0.53;100.00;101069.88;5260921;28;20504;-78
2023/12/02 05:13:52;;;;;;;20.38;14.55;;;;;;;0.56;100.00;101080.06;5261898;28;20036;-78
2023/12/02 05:16:24;;;;;;;18.52;13.77;;;;;;;0.50;100.00;101081.16;5262352;28;20037;-79
2023/12/02 05:18:56;;;;;;;22.73;16.08;;;;;;;0.53;100.00;101087.91;5258955;28;20047;-78
2023/12/02 05:21:28;;;;;;;19.70;13.68;;;;;;;0.54;100.00;101097.34;5261767;28;20036;-78
2023/12/02 05:24:00;;;;;;;20.67;14.85;;;;;;;0.56;100.00;101098.13;5264769;28;20032;-78
2023/12/02 05:26:32;;;;;;;20.73;14.75;;;;;;;0.62;100.00;101100.47;5261327;28;20042;-78
2023/12/02 05:29:05;;;;;;;20.15;14.25;;;;;;;0.57;100.00;101105.81;5237724;28;20046;-78
2023/12/02 05:31:38;;;;;;;18.00;13.55;;;;;;;0.54;100.00;101093.03;5259941;28;20037;-78
2023/12/02 05:34:09;;;;;;;20.88;14.68;;;;;;;0.58;100.00;101099.75;5262871;28;20504;-78
2023/12/02 05:36:45;;;;;;;19.27;13.65;;;;;;;0.64;100.00;101103.81;5262081;28;20044;-78
2023/12/02 05:39:17;;;;;;;20.13;14.57;;;;;;;0.47;100.00;101095.00;5259222;28;20037;-78
2023/12/02 05:41:49;;;;;;;20.05;14.55;;;;;;;0.57;100.00;101107.53;5261266;28;20509;-79
2023/12/02 05:44:21;;;;;;;21.20;13.43;;;;;;;0.57;100.00;101090.34;5261338;28;20039;-79
2023/12/02 05:46:53;;;;;;;19.70;14.20;;;;;;;0.53;100.00;101086.22;5260302;28;20037;-82
2023/12/02 05:49:25;;;;;;;22.67;15.45;;;;;;;0.56;100.00;101090.38;5264966;28;20044;-79
2023/12/02 05:51:57;;;;;;;20.30;14.40;;;;;;;0.62;100.00;101085.00;5262239;28;20052;-80
2023/12/02 05:54:29;;;;;;;20.25;14.30;;;;;;;0.64;100.00;101098.66;5260552;28;20032;-80
2023/12/02 05:57:01;;;;;;;18.98;13.98;;;;;;;0.58;100.00;101098.91;5258429;28;20033;-78
2023/12/02 05:59:34;;;;;;;22.80;14.85;;;;;;;0.52;100.00;101104.28;5261052;28;20052;-78
2023/12/02 06:02:05;;;;;;;20.03;14.73;;;;;;;0.53;100.00;101118.84;5261477;28;20048;-81
2023/12/02 06:04:37;;;;;;;19.80;13.98;;;;;;;0.50;100.00;101119.00;5262993;28;20028;-78
2023/12/02 06:07:10;;;;;;;19.55;13.73;;;;;;;0.47;100.00;101132.84;5262236;28;20524;-79
2023/12/02 06:09:43;;;;;;;21.33;14.75;;;;;;;0.39;100.00;101120.25;5244667;28;20041;-78
2023/12/02 06:12:15;;;;;;;21.80;14.88;;;;;;;0.45;100.00;101119.97;5262224;28;20035;-80
2023/12/02 06:14:47;;;;;;;20.30;14.32;;;;;;;0.45;100.00;101132.03;5260917;28;20526;-78
2023/12/02 06:17:19;;;;;;;22.13;14.57;;;;;;;0.44;100.00;101128.63;5262658;28;20033;-79
2023/12/02 06:19:50;;;;;;;18.77;13.85;;;;;;;0.52;100.00;101127.50;5264297;28;20036;-81
2023/12/02 06:22:22;;;;;;;20.92;14.63;;;;;;;0.50;100.00;101125.00;5263716;28;20041;-82
2023/12/02 06:24:54;;;;;;;20.48;15.18;;;;;;;0.49;100.00;101123.28;5245283;28;20113;-82
2023/12/02 06:27:26;;;;;;;21.45;14.75;;;;;;;0.50;100.00;101117.25;5246420;28;20490;-82
2023/12/02 06:29:58;;;;;;;21.40;14.88;;;;;;;0.52;100.00;101146.38;5248604;28;20045;-81
2023/12/02 06:32:30;;;;;;;21.35;14.52;;;;;;;0.47;100.00;101133.66;5267867;28;20037;-80
2023/12/02 06:35:04;;;;;;;22.38;15.52;;;;;;;0.51;100.00;101139.56;5265374;28;20394;-80
2023/12/02 06:37:35;;;;;;;22.35;16.00;;;;;;;0.62;100.00;101149.44;5262624;28;20033;-80
2023/12/02 06:40:08;;;;;;;22.30;15.18;;;;;;;0.53;100.00;101135.19;5261958;28;20201;-80
2023/12/02 06:42:40;;;;;;;20.55;14.77;;;;;;;0.52;100.00;101138.63;5265249;28;20041;-80
2023/12/02 06:45:12;;;;;;;21.77;14.93;;;;;;;0.56;100.00;101147.94;5266199;28;20032;-80
2023/12/02 06:47:44;;;;;;;21.38;14.43;;;;;;;0.50;100.00;101144.78;5262884;28;20454;-80
2023/12/02 06:50:16;;;;;;;19.70;13.60;;;;;;;0.55;100.00;101150.59;5264161;28;20577;-80
2023/12/02 06:52:48;;;;;;;18.45;13.80;;;;;;;0.61;100.00;101158.09;5265463;28;20029;-80
2023/12/02 06:55:20;;;;;;;23.98;15.80;;;;;;;0.57;100.00;101167.69;5269786;28;20028;-78
2023/12/02 06:57:52;;;;;;;21.05;15.65;;;;;;;0.59;100.00;101173.59;5258637;28;20067;-78
2023/12/02 07:00:23;;;;;;;21.30;15.40;;;;;;;0.57;100.00;101172.84;5265674;28;20059;-77
2023/12/02 07:02:55;;;;;;;19.90;13.57;;;;;;;0.56;100.00;101176.28;5263393;28;20040;-78
2023/12/02 07:05:27;;;;;;;21.83;15.18;;;;;;;0.42;100.00;101152.81;5263683;28;20036;-80
2023/12/02 07:07:59;;;;;;;21.55;15.10;;;;;;;0.54;100.00;101179.84;5244501;28;20047;-80
2023/12/02 07:10:31;;;;;;;21.33;14.75;;;;;;;0.43;100.00;101173.34;5263809;28;20029;-80
2023/12/02 07:13:03;;;;;;;21.05;14.55;;;;;;;0.52;100.00;101190.19;5267328;28;20037;-80
2023/12/02 07:15:35;;;;;;;23.13;15.65;;;;;;;0.55;100.00;101187.50;5262475;28;20033;-80
2023/12/02 07:18:07;;;;;;;21.52;15.05;;;;;;;0.46;100.00;101183.56;5265610;28;20501;-80
2023/12/02 07:20:39;;;;;;;21.45;15.27;;;;;;;0.48;100.00;101196.38;5265235;28;20050;-80
2023/12/02 07:23:11;;;;;;;22.90;15.30;;;;;;;0.48;100.00;101201.53;5263020;28;20071;-81
2023/12/02 07:25:43;;;;;;;19.40;13.20;;;;;;;0.47;100.00;101197.28;5263092;28;20427;-80
2023/12/02 07:28:15;;;;;;;21.98;15.93;;;;;;;0.47;100.00;101208.41;5265685;28;20402;-80
2023/12/02 07:30:50;;;;;;;22.20;15.90;;;;;;;0.47;100.00;101197.28;5264240;28;20037;-79
2023/12/02 07:33:22;;;;;;;20.75;14.23;;;;;;;0.55;100.00;101212.47;5262911;28;20040;-78
2023/12/02 07:35:54;;;;;;;20.58;14.38;;;;;;;0.53;100.00;101198.78;5262529;28;20029;-78
2023/12/02 07:38:26;;;;;;;21.38;15.13;;;;;;;0.39;100.00;101189.00;5260787;28;20514;-80
2023/12/02 07:40:58;;;;;;;21.58;15.27;;;;;;;0.56;100.00;101206.41;5263864;28;20046;-80
2023/12/02 07:43:30;;;;;;;20.33;14.48;;;;;;;0.40;100.00;101194.06;5245147;28;20044;-81
2023/12/02 07:46:03;;;;;;;25.27;16.23;;;;;;;0.40;100.00;101186.34;5265406;28;20039;-78
2023/12/02 07:48:34;;;;;;;21.45;14.73;;;;;;;0.47;100.00;101200.69;5262860;28;20413;-80
2023/12/02 07:51:07;;;;;;;21.80;15.13;;;;;;;0.45;100.00;101196.47;5264560;28;20033;-79
2023/12/02 07:53:39;;;;;;;21.67;15.43;;;;;;;0.51;100.00;101209.16;5264201;28;20047;-81
2023/12/02 07:56:11;;;;;;;22.40;14.80;;;;;;;0.44;100.00;101194.81;5263483;28;20035;-78
2023/12/02 07:58:43;;;;;;;21.77;15.30;;;;;;;0.35;100.00;101210.63;5260183;28;20504;-78
2023/12/02 08:01:15;;;;;;;21.20;14.13;;;;;;;0.34;100.00;101217.50;5263517;28;20033;-80
2023/12/02 08:03:47;;;;;;;21.92;15.38;;;;;;;0.38;100.00;101225.94;5261353;28;20039;-80
2023/12/02 08:06:19;;;;;;;23.17;15.07;;;;;;;0.36;100.00;101225.19;5243267;28;20040;-81
2023/12/02 08:08:53;;;;;;;21.42;15.20;;;;;;;0.34;100.00;101232.09;5261647;28;20035;-80
2023/12/02 08:11:26;;;;;;;20.88;13.95;;;;;;;0.37;100.00;101232.84;5259198;28;20039;-80
2023/12/02 08:13:58;;;;;;;24.38;15.45;;;;;;;0.31;100.00;101233.09;5259660;28;20041;-78
2023/12/02 08:16:30;;;;;;;22.17;14.98;;;;;;;0.27;100.00;101231.50;5241203;28;20048;-80
2023/12/02 08:19:02;;;;;;;21.05;14.57;;;;;;;0.21;100.00;101237.72;5259529;28;20036;-81
2023/12/02 08:21:34;;;;;;;21.42;15.93;;;;;;;0.19;100.00;101247.25;5265009;28;20032;-81
2023/12/02 08:24:06;;;;;;;21.48;15.20;;;;;;;0.19;100.00;101257.56;5236966;28;20049;-79
2023/12/02 08:26:38;;;;;;;24.98;15.52;;;;;;;0.17;100.00;101259.31;5258732;28;20029;-81
2023/12/02 08:29:10;;;;;;;21.00;14.88;;;;;;;0.17;100.00;101259.31;5258523;28;20549;-81
2023/12/02 08:31:42;;;;;;;22.25;15.45;;;;;;;0.18;100.00;101261.00;5256266;28;20490;-81
2023/12/02 08:34:14;;;;;;;21.65;15.02;;;;;;;0.07;100.00;101257.94;5260607;28;20048;-80
2023/12/02 08:36:46;;;;;;;22.50;15.23;;;;;;;0.15;100.00;101268.88;5243064;28;20036;-79
2023/12/02 08:39:17;;;;;;;20.73;14.55;;;;;;;0.19;100.00;101285.91;5258439;28;20311;-81
2023/12/02 08:41:49;;;;;;;21.38;14.48;;;;;;;0.19;100.00;101283.31;5243493;28;20044;-82
2023/12/02 08:44:23;;;;;;;25.00;15.82;;;;;;;0.16;100.00;101282.59;5260644;28;20310;-82
2023/12/02 08:46:56;;;;;;;24.42;15.52;;;;;;;0.10;100.00;101278.47;5260901;28;20037;-82
2023/12/02 08:49:28;;;;;;;24.27;15.82;;;;;;;0.16;100.00;101280.84;5260182;28;20036;-82
2023/12/02 08:51:59;;;;;;;23.55;15.25;;;;;;;0.21;100.00;101296.13;5260109;28;20033;-82
2023/12/02 08:54:31;;;;;;;23.27;15.75;;;;;;;0.22;100.00;101284.94;5260151;28;20039;-80
2023/12/02 08:57:03;;;;;;;22.15;15.38;;;;;;;0.19;100.00;101273.00;5255140;28;20110;-81
2023/12/02 08:59:35;;;;;;;22.80;16.02;;;;;;;0.22;100.00;101290.91;5252715;28;20631;-81
2023/12/02 09:02:07;;;;;;;21.08;14.23;;;;;;;0.25;100.00;101292.56;5197382;28;1044627;-82
2023/12/02 09:04:39;;;;;;;24.17;16.27;;;;;;;0.22;100.00;101295.22;5256762;28;20470;-82
2023/12/02 09:07:11;;;;;;;23.52;15.63;;;;;;;0.25;100.00;101302.88;5240659;28;20032;-82
2023/12/02 09:09:43;;;;;;;24.67;15.98;;;;;;;0.11;100.00;101269.84;5239693;28;20037;-82
2023/12/02 09:12:15;;;;;;;23.90;15.30;;;;;;;0.23;100.00;101290.03;5259962;28;20036;-83
2023/12/02 09:15:01;;;;;;;24.88;16.45;;;;;;;0.52;100.00;101301.06;5261122;28;20447;-85
2023/12/02 09:17:45;;;;;;;23.83;15.82;;;;;;;0.45;100.00;101310.72;5242331;28;20052;-82
2023/12/02 09:20:31;;;;;;;23.92;16.17;;;;;;;0.50;100.00;101312.34;5261555;28;20043;-84
2023/12/02 09:23:06;;;;;;;24.77;16.17;;;;;;;0.33;100.00;101302.59;5261802;28;20509;-80
2023/12/02 09:25:41;;;;;;;24.08;15.77;;;;;;;0.46;100.00;101301.28;5241972;28;20401;-80
2023/12/02 09:28:19;;;;;;;26.00;17.42;;;;;;;0.53;100.00;101307.91;5237467;28;20044;-80
2023/12/02 09:30:56;;;;;;;23.30;16.45;;;;;;;0.48;100.00;101302.91;5258933;28;20551;-81
2023/12/02 09:33:28;;;;;;;26.67;18.23;;;;;;;0.46;100.00;101307.28;5258277;28;20044;-80
2023/12/02 09:36:02;;;;;;;24.23;17.17;;;;;;;0.54;100.00;101317.31;5260937;28;20040;-80
2023/12/02 09:38:34;;;;;;;24.10;17.20;;;;;;;0.45;100.00;101305.56;5243018;28;20048;-80
2023/12/02 09:41:30;;;;;;;24.75;17.55;;;;;;;0.74;100.00;101316.59;5244728;28;20076;-80
2023/12/02 09:44:09;;;;;;;26.70;17.05;;;;;;;0.68;100.00;101322.81;5261607;28;20071;-80
2023/12/02 09:47:00;;;;;;;23.67;16.05;;;;;;;0.85;100.00;101334.25;5263354;28;20039;-82
2023/12/02 09:49:54;;;;;;;25.20;16.92;;;;;;;0.84;100.00;101336.00;5264988;28;20024;-80
2023/12/02 09:52:47;;;;;;;24.42;16.95;;;;;;;1.00;100.00;101331.13;5262378;28;20044;-81
2023/12/02 09:55:26;;;;;;;;;;;;;;;1.26;100.00;101330.13;5261545;28;20051;-82
2023/12/02 09:58:19;;;;;;;23.42;15.57;;;;;;;1.05;100.00;101330.94;5239645;28;19920;-83
2023/12/02 10:00:58;;;;;;;24.13;16.73;;;;;;;0.93;100.00;101337.41;5263081;28;20028;-81
2023/12/02 10:03:36;;;;;;;25.35;17.98;;;;;;;1.00;100.00;101338.84;5257973;28;20063;-81
2023/12/02 10:06:26;;;;;;;26.23;18.15;;;;;;;1.00;100.00;101327.69;5268299;28;20504;-80
2023/12/02 10:09:15;;;;;;;26.48;17.70;;;;;;;1.14;100.00;101309.97;5260430;28;20064;-80
2023/12/02 10:11:55;;;;;;;24.10;17.20;;;;;;;1.13;100.00;101297.94;5268309;28;20493;-82
2023/12/02 10:14:32;;;;;;;28.15;18.13;;;;;;;1.20;100.00;101318.28;5251466;28;20036;-83
2023/12/02 10:17:08;;;;;;;26.80;16.50;;;;;;;1.24;100.00;101320.75;5268934;28;20028;-81
2023/12/02 10:19:50;;;;;;;24.48;16.92;;;;;;;1.18;100.00;101304.63;5266934;28;20028;-82
2023/12/02 10:22:23;;;;;;;25.60;17.40;;;;;;;1.20;100.00;101310.56;5270899;28;20482;-81
2023/12/02 10:25:09;;;;;;;25.85;17.30;;;;;;;1.46;100.00;101316.44;5273139;28;20037;-80
2023/12/02 10:27:41;;;;;;;24.23;16.80;;;;;;;1.26;100.00;101308.66;5268950;28;20029;-83
2023/12/02 10:30:17;;;;;;;24.30;16.50;;;;;;;1.37;100.00;101330.56;5268031;28;20032;-80
2023/12/02 10:33:08;;;;;;;24.13;15.55;;;;;;;1.53;100.00;101328.22;5266977;28;20029;-82
2023/12/02 10:35:46;;;;;;;23.50;17.15;;;;;;;1.49;100.00;101331.00;5268881;28;20037;-82
2023/12/02 10:38:57;;;;;;;25.42;17.23;;;;;;;1.60;100.00;101331.41;5269742;28;20040;-82
2023/12/02 10:41:54;;;;;;;26.08;18.67;;;;;;;1.70;100.00;101338.75;5269063;28;20480;-81
2023/12/02 10:44:30;;;;;;;25.52;16.73;;;;;;;1.64;100.00;101307.16;5268990;28;20475;-81
2023/12/02 10:47:04;;;;;;;26.38;17.60;;;;;;;1.76;100.00;101332.47;5268434;28;20029;-80
2023/12/02 10:49:37;;;;;;;24.67;16.73;;;;;;;1.78;100.00;101334.97;5267933;28;20037;-80
2023/12/02 10:52:12;;;;;;;26.95;18.23;;;;;;;1.72;100.00;101332.66;5250606;28;20039;-81
2023/12/02 10:54:47;;;;;;;24.90;17.13;;;;;;;1.75;100.00;101340.28;5258067;28;20028;-80
2023/12/02 10:57:21;;;;;;;25.73;17.73;;;;;;;1.73;100.00;101344.66;5266810;28;20041;-83
2023/12/02 11:00:11;;;;;;;26.13;18.00;;;;;;;1.85;100.00;101326.91;5269029;28;20032;-80
2023/12/02 11:02:52;;;;;;;23.90;16.98;;;;;;;1.86;100.00;101317.47;5267815;28;20511;-83
2023/12/02 11:05:30;;;;;;;23.55;17.20;;;;;;;2.01;100.00;101339.22;5265622;28;21074;-82
2023/12/02 11:08:06;;;;;;;26.17;17.65;;;;;;;1.98;100.00;101337.63;5266571;28;20039;-80
2023/12/02 11:10:49;;;;;;;24.63;18.02;;;;;;;2.07;100.00;101337.22;5267735;28;20040;-81
2023/12/02 11:13:23;;;;;;;25.67;16.87;;;;;;;1.87;100.00;101316.53;5266092;28;20398;-80
2023/12/02 11:16:20;;;;;;;27.10;18.17;;;;;;;2.12;100.00;101322.38;5267182;28;20040;-82
2023/12/02 11:19:33;;;;;;;25.80;17.80;;;;;;;2.24;100.00;101339.13;5266726;28;20502;-81
2023/12/02 11:22:20;;;;;;;26.67;17.27;;;;;;;2.28;100.00;101342.41;5267786;28;20548;-80
2023/12/02 11:25:23;;;;;;;27.67;18.65;;;;;;;2.30;100.00;101319.91;5266404;28;20362;-80
2023/12/02 11:28:27;;;;;;;28.20;18.52;;;;;;;2.39;100.00;101340.22;5270872;28;20405;-81
2023/12/02 11:31:29;;;;;;;25.25;17.58;;;;;;;2.29;100.00;101342.34;5263833;28;20078;-83
2023/12/02 11:34:25;;;;;;;25.10;17.27;;;;;;;2.32;100.00;101331.03;5265270;28;20037;-81
2023/12/02 11:37:37;;;;;;;26.33;17.42;;;;;;;2.33;100.00;101314.59;5250118;28;20051;-81
2023/12/02 11:40:26;;;;;;;24.65;16.80;;;;;;;2.40;100.00;101321.19;5213672;28;20063;-81
2023/12/02 11:43:09;;;;;;;27.02;17.85;;;;;;;2.46;100.00;101341.59;5249087;28;20470;-81